Airfield :
LOGIN :

Register | Disclaimer

   EN    FR    IT 

 










Legend :    VFR   Marginal VFR   IFR   Intensive IFR   Very Intensive IFR
Visi :
Ceiling :
>= 8 km
>= 3000ft
5 to 8 km
1000 to 3000 ft
1500m to 5 km
500 to 1000 ft
800 to 1500m
200 to 500 ft
< 800m
< 200 ft
Symbols :   Thunderstorms  Fog  Heavy snow  Heavy precipitations  Wind > 20 kt
SIGMETs :     Misc.  Thunderstorms  Icing  Turbulence  Mountain Waves  Volcanic Ashes







- Airport Elevation : 526 ft
- IATA code : LTN
- Download approach charts


EGGW - London Luton

CURRENT METAR :
  • 172250Z AUTO 33017KT 9999 NCD 08/06 Q1020

EXPIRED METARs :
  • 172220Z AUTO 31015KT 9999 FEW016 08/07 Q1019
  • 172150Z AUTO 30013KT 9999 SCT005 SCT040 09/08 Q1019
  • 172120Z AUTO 29013KT 9999 SCT006 BKN014 BKN018 09/09 Q1019
  • 172050Z 29011KT 9999 BKN004 OVC015 09/09 Q1019
  • 172020Z 27013KT 3600 -RADZ BKN004 BKN008 BKN014 09/09 Q1019

TAF AMD TAF EGGW
Valid from the 17 at 21:00 until the 18 at 18:00 UTC


172128Z 1721/1818 31010KT 9999 BKN014
BECMG 1721/1723 FEW030
PROB30 1804/1810 0700 FG BKN001
PROB30 1810/1813 3000 BR BKN003
BECMG 1813/1816 VRB03KT
PROB40 1816/1818 0300 FG VV///
ATIS : +44 1582 395 204
No reported NOTAMs for that airfield.



MET'MAP, your aeronautical weather chart ! - Copyright ORBIFLY December 2007 - Disclaimer

ORBIFLY MET'MAP TEAM :

Programming & Development : Alexandra Zaïnal
Concept & Development : Baudouin d'Aumeries
Co-Development & Prog : Marc-Olivier Méhu
Technical & hardware support : Manuel Goepfert

Contact : metmap@orbifly.com




SOURCES & CREDITS :

   NOAA